sensor_id;sensor_type;location;lat;lon;timestamp;pressure;altitude;pressure_sealevel;temperature;humidity
12471;BME280;36499;46.484;13.832;2023-08-06T00:01:03;92274.28;;;13.96;100.00
12471;BME280;36499;46.484;13.832;2023-08-06T00:03:30;92277.22;;;14.05;100.00
12471;BME280;36499;46.484;13.832;2023-08-06T00:05:57;92279.31;;;14.03;100.00
12471;BME280;36499;46.484;13.832;2023-08-06T00:08:24;92272.28;;;14.13;100.00
12471;BME280;36499;46.484;13.832;2023-08-06T00:10:52;92281.16;;;14.07;100.00
12471;BME280;36499;46.484;13.832;2023-08-06T00:13:19;92278.31;;;14.14;100.00
12471;BME280;36499;46.484;13.832;2023-08-06T00:15:47;92273.78;;;14.04;100.00
12471;BME280;36499;46.484;13.832;2023-08-06T00:18:14;92272.72;;;14.00;100.00
12471;BME280;36499;46.484;13.832;2023-08-06T00:20:41;92275.41;;;14.10;100.00
12471;BME280;36499;46.484;13.832;2023-08-06T00:23:08;92271.22;;;14.09;100.00
12471;BME280;36499;46.484;13.832;2023-08-06T00:25:36;92268.56;;;14.04;100.00
12471;BME280;36499;46.484;13.832;2023-08-06T00:28:03;92272.47;;;14.02;100.00
12471;BME280;36499;46.484;13.832;2023-08-06T00:30:31;92263.31;;;13.99;100.00
12471;BME280;36499;46.484;13.832;2023-08-06T00:32:59;92271.16;;;13.99;100.00
12471;BME280;36499;46.484;13.832;2023-08-06T00:35:26;92260.69;;;13.99;100.00
12471;BME280;36499;46.484;13.832;2023-08-06T00:37:53;92254.97;;;14.07;100.00
12471;BME280;36499;46.484;13.832;2023-08-06T00:40:21;92255.97;;;14.01;100.00
12471;BME280;36499;46.484;13.832;2023-08-06T00:42:49;92249.69;;;14.02;100.00
12471;BME280;36499;46.484;13.832;2023-08-06T00:45:16;92248.13;;;14.06;100.00
12471;BME280;36499;46.484;13.832;2023-08-06T00:47:43;92245.78;;;14.10;100.00
12471;BME280;36499;46.484;13.832;2023-08-06T00:50:13;92244.47;;;14.07;100.00
12471;BME280;36499;46.484;13.832;2023-08-06T00:52:40;92246.50;;;14.00;100.00
12471;BME280;36499;46.484;13.832;2023-08-06T00:55:08;92240.00;;;14.08;100.00
12471;BME280;36499;46.484;13.832;2023-08-06T00:57:36;92236.63;;;14.07;100.00
12471;BME280;36499;46.484;13.832;2023-08-06T01:00:05;92240.78;;;14.03;100.00
12471;BME280;36499;46.484;13.832;2023-08-06T01:02:33;92231.34;;;14.02;100.00
12471;BME280;36499;46.484;13.832;2023-08-06T01:05:00;92230.81;;;14.05;100.00
12471;BME280;36499;46.484;13.832;2023-08-06T01:07:46;92225.28;;;13.97;100.00
12471;BME280;36499;46.484;13.832;2023-08-06T01:10:33;92218.94;;;13.92;100.00
12471;BME280;36499;46.484;13.832;2023-08-06T01:13:16;92222.38;;;13.93;100.00
12471;BME280;36499;46.484;13.832;2023-08-06T01:15:49;92218.47;;;14.01;100.00
12471;BME280;36499;46.484;13.832;2023-08-06T01:18:17;92218.94;;;13.92;100.00
12471;BME280;36499;46.484;13.832;2023-08-06T01:20:46;92222.38;;;13.93;100.00
12471;BME280;36499;46.484;13.832;2023-08-06T01:23:13;92224.22;;;13.98;100.00
12471;BME280;36499;46.484;13.832;2023-08-06T01:25:48;92220.56;;;13.99;100.00
12471;BME280;36499;46.484;13.832;2023-08-06T01:28:22;92220.09;;;14.12;100.00
12471;BME280;36499;46.484;13.832;2023-08-06T01:30:59;92223.75;;;14.06;100.00
12471;BME280;36499;46.484;13.832;2023-08-06T01:33:32;92222.69;;;14.02;100.00
12471;BME280;36499;46.484;13.832;2023-08-06T01:36:03;92224.81;;;14.10;100.00
12471;BME280;36499;46.484;13.832;2023-08-06T01:38:32;92223.00;;;14.10;100.00
12471;BME280;36499;46.484;13.832;2023-08-06T01:40:59;92231.94;;;14.14;100.00
12471;BME280;36499;46.484;13.832;2023-08-06T01:43:26;92224.88;;;14.20;100.00
12471;BME280;36499;46.484;13.832;2023-08-06T01:45:53;92223.78;;;14.16;100.00
12471;BME280;36499;46.484;13.832;2023-08-06T01:48:20;92230.34;;;14.13;100.00
12471;BME280;36499;46.484;13.832;2023-08-06T01:50:47;92229.50;;;14.03;100.00
12471;BME280;36499;46.484;13.832;2023-08-06T01:53:16;92230.31;;;14.08;100.00
12471;BME280;36499;46.484;13.832;2023-08-06T01:55:48;92232.44;;;14.11;100.00
12471;BME280;36499;46.484;13.832;2023-08-06T01:58:15;92232.94;;;14.08;100.00
12471;BME280;36499;46.484;13.832;2023-08-06T02:00:42;92234.53;;;14.09;100.00
12471;BME280;36499;46.484;13.832;2023-08-06T02:03:09;92233.72;;;14.09;100.00
12471;BME280;36499;46.484;13.832;2023-08-06T02:05:36;92231.09;;;14.04;100.00
12471;BME280;36499;46.484;13.832;2023-08-06T02:08:03;92235.53;;;14.03;100.00
12471;BME280;36499;46.484;13.832;2023-08-06T02:10:32;92232.66;;;14.00;100.00
12471;BME280;36499;46.484;13.832;2023-08-06T02:12:59;92232.38;;;14.01;100.00
12471;BME280;36499;46.484;13.832;2023-08-06T02:15:26;92230.31;;;14.03;100.00
12471;BME280;36499;46.484;13.832;2023-08-06T02:17:53;92230.91;;;14.20;100.00
12471;BME280;36499;46.484;13.832;2023-08-06T02:20:20;92230.31;;;14.08;100.00
12471;BME280;36499;46.484;13.832;2023-08-06T02:22:47;92225.06;;;14.03;100.00
12471;BME280;36499;46.484;13.832;2023-08-06T02:25:14;92232.44;;;14.11;100.00
12471;BME280;36499;46.484;13.832;2023-08-06T02:27:43;92228.75;;;14.07;100.00
12471;BME280;36499;46.484;13.832;2023-08-06T02:30:10;92224.22;;;13.98;100.00
12471;BME280;36499;46.484;13.832;2023-08-06T02:32:37;92218.19;;;13.97;100.00
12471;BME280;36499;46.484;13.832;2023-08-06T02:35:05;92222.94;;;14.00;100.00
12471;BME280;36499;46.484;13.832;2023-08-06T02:37:33;92218.19;;;13.92;100.00
12471;BME280;36499;46.484;13.832;2023-08-06T02:40:01;92221.34;;;13.94;100.00
12471;BME280;36499;46.484;13.832;2023-08-06T02:42:28;92222.84;;;13.85;100.00
12471;BME280;36499;46.484;13.832;2023-08-06T02:44:57;92219.97;;;13.86;100.00
12471;BME280;36499;46.484;13.832;2023-08-06T02:47:24;92216.91;;;14.00;100.00
12471;BME280;36499;46.484;13.832;2023-08-06T02:49:51;92220.88;;;14.07;100.00
12471;BME280;36499;46.484;13.832;2023-08-06T02:52:18;92222.41;;;13.98;100.00
12471;BME280;36499;46.484;13.832;2023-08-06T02:54:45;92214.03;;;14.01;100.00
12471;BME280;36499;46.484;13.832;2023-08-06T02:57:12;92215.66;;;14.12;100.00
12471;BME280;36499;46.484;13.832;2023-08-06T02:59:39;92209.81;;;13.95;100.00
12471;BME280;36499;46.484;13.832;2023-08-06T03:02:08;92206.44;;;14.05;100.00
12471;BME280;36499;46.484;13.832;2023-08-06T03:04:35;92211.16;;;14.03;100.00
12471;BME280;36499;46.484;13.832;2023-08-06T03:07:02;92214.06;;;14.06;100.00
12471;BME280;36499;46.484;13.832;2023-08-06T03:09:29;92202.13;;;13.78;100.00
12471;BME280;36499;46.484;13.832;2023-08-06T03:11:56;92205.00;;;13.77;100.00
12471;BME280;36499;46.484;13.832;2023-08-06T03:14:23;92207.34;;;13.78;100.00
12471;BME280;36499;46.484;13.832;2023-08-06T03:16:50;92201.88;;;13.85;100.00
12471;BME280;36499;46.484;13.832;2023-08-06T03:19:18;92213.72;;;13.92;100.00
12471;BME280;36499;46.484;13.832;2023-08-06T03:21:45;92215.56;;;13.97;100.00
12471;BME280;36499;46.484;13.832;2023-08-06T03:24:13;92211.97;;;14.03;100.00
12471;BME280;36499;46.484;13.832;2023-08-06T03:26:40;92207.75;;;14.02;100.00
12471;BME280;36499;46.484;13.832;2023-08-06T03:29:07;92213.00;;;14.02;100.00
12471;BME280;36499;46.484;13.832;2023-08-06T03:31:34;92217.72;;;14.05;100.00
12471;BME280;36499;46.484;13.832;2023-08-06T03:34:01;92211.97;;;14.03;100.00
12471;BME280;36499;46.484;13.832;2023-08-06T03:36:30;92214.53;;;13.98;100.00
12471;BME280;36499;46.484;13.832;2023-08-06T03:38:57;92210.63;;;14.01;100.00
12471;BME280;36499;46.484;13.832;2023-08-06T03:41:24;92207.25;;;14.05;100.00
12471;BME280;36499;46.484;13.832;2023-08-06T03:43:51;92202.53;;;14.07;100.00
12471;BME280;36499;46.484;13.832;2023-08-06T03:46:18;92206.94;;;13.97;100.00
12471;BME280;36499;46.484;13.832;2023-08-06T03:48:45;92205.09;;;13.97;100.00
12471;BME280;36499;46.484;13.832;2023-08-06T03:51:12;92200.84;;;13.86;100.00
12471;BME280;36499;46.484;13.832;2023-08-06T03:53:40;92200.59;;;13.87;100.00
12471;BME280;36499;46.484;13.832;2023-08-06T03:56:07;92199.06;;;13.97;100.00
12471;BME280;36499;46.484;13.832;2023-08-06T03:58:34;92190.88;;;13.83;100.00
12471;BME280;36499;46.484;13.832;2023-08-06T04:01:03;92193.75;;;13.81;100.00
12471;BME280;36499;46.484;13.832;2023-08-06T04:03:30;92188.50;;;13.76;100.00
12471;BME280;36499;46.484;13.832;2023-08-06T04:05:57;92190.66;;;13.89;100.00
12471;BME280;36499;46.484;13.832;2023-08-06T04:08:24;92188.84;;;14.00;100.00
12471;BME280;36499;46.484;13.832;2023-08-06T04:10:53;92184.41;;;14.01;100.00
12471;BME280;36499;46.484;13.832;2023-08-06T04:13:20;92182.06;;;14.04;100.00
12471;BME280;36499;46.484;13.832;2023-08-06T04:15:47;92184.69;;;13.99;100.00
12471;BME280;36499;46.484;13.832;2023-08-06T04:18:14;92195.47;;;14.13;100.00
12471;BME280;36499;46.484;13.832;2023-08-06T04:20:44;92184.44;;;14.06;100.00
12471;BME280;36499;46.484;13.832;2023-08-06T04:23:12;92190.19;;;14.03;100.00
12471;BME280;36499;46.484;13.832;2023-08-06T04:25:39;92188.09;;;14.05;100.00
12471;BME280;36499;46.484;13.832;2023-08-06T04:28:07;92186.16;;;13.85;100.00
12471;BME280;36499;46.484;13.832;2023-08-06T04:31:20;92187.78;;;13.91;100.00
12471;BME280;36499;46.484;13.832;2023-08-06T04:34:03;92184.13;;;13.97;100.00
12471;BME280;36499;46.484;13.832;2023-08-06T04:36:30;92180.47;;;13.98;100.00
12471;BME280;36499;46.484;13.832;2023-08-06T04:38:57;92172.31;;;13.89;100.00
12471;BME280;36499;46.484;13.832;2023-08-06T04:41:24;92177.34;;;13.96;100.00
12471;BME280;36499;46.484;13.832;2023-08-06T04:43:52;92184.13;;;13.92;100.00
12471;BME280;36499;46.484;13.832;2023-08-06T04:46:19;92182.31;;;13.98;100.00
12471;BME280;36499;46.484;13.832;2023-08-06T04:48:46;92181.28;;;13.99;100.00
12471;BME280;36499;46.484;13.832;2023-08-06T04:51:13;92188.34;;;13.98;100.00
12471;BME280;36499;46.484;13.832;2023-08-06T04:53:41;92190.47;;;14.06;100.00
12471;BME280;36499;46.484;13.832;2023-08-06T04:56:08;92192.56;;;14.09;100.00
12471;BME280;36499;46.484;13.832;2023-08-06T04:58:35;92189.47;;;14.17;100.00
12471;BME280;36499;46.484;13.832;2023-08-06T05:01:03;92188.41;;;14.13;100.00
12471;BME280;36499;46.484;13.832;2023-08-06T05:03:30;92190.50;;;14.16;100.00
12471;BME280;36499;46.484;13.832;2023-08-06T05:05:57;92192.84;;;14.13;100.00
12471;BME280;36499;46.484;13.832;2023-08-06T05:08:24;92201.03;;;14.21;100.00
12471;BME280;36499;46.484;13.832;2023-08-06T05:10:51;92201.56;;;14.28;100.00
12471;BME280;36499;46.484;13.832;2023-08-06T05:13:18;92204.75;;;14.30;100.00
12471;BME280;36499;46.484;13.832;2023-08-06T05:15:45;92206.38;;;14.42;100.00
12471;BME280;36499;46.484;13.832;2023-08-06T05:18:14;92205.38;;;14.58;100.00
12471;BME280;36499;46.484;13.832;2023-08-06T05:20:42;92195.91;;;14.42;100.00
12471;BME280;36499;46.484;13.832;2023-08-06T05:23:09;92204.34;;;14.59;100.00
12471;BME280;36499;46.484;13.832;2023-08-06T05:25:37;92204.91;;;14.81;100.00
12471;BME280;36499;46.484;13.832;2023-08-06T05:28:04;92206.50;;;14.92;99.43
12471;BME280;36499;46.484;13.832;2023-08-06T05:30:31;92204.16;;;15.01;98.78
12471;BME280;36499;46.484;13.832;2023-08-06T05:32:58;92213.34;;;14.93;98.77
12471;BME280;36499;46.484;13.832;2023-08-06T05:35:27;92213.09;;;15.05;98.29
12471;BME280;36499;46.484;13.832;2023-08-06T05:37:54;92212.28;;;15.04;98.64
12471;BME280;36499;46.484;13.832;2023-08-06T05:40:21;92205.94;;;14.80;100.00
12471;BME280;36499;46.484;13.832;2023-08-06T05:42:48;92213.34;;;14.93;100.00
12471;BME280;36499;46.484;13.832;2023-08-06T05:45:15;92214.41;;;15.12;99.48
12471;BME280;36499;46.484;13.832;2023-08-06T05:47:42;92194.47;;;15.21;98.45
12471;BME280;36499;46.484;13.832;2023-08-06T05:50:09;92196.31;;;15.21;97.90
12471;BME280;36499;46.484;13.832;2023-08-06T05:52:38;92187.88;;;15.19;97.80
12471;BME280;36499;46.484;13.832;2023-08-06T05:55:06;92192.09;;;15.20;97.93
12471;BME280;36499;46.484;13.832;2023-08-06T05:57:33;92192.63;;;15.02;98.85
12471;BME280;36499;46.484;13.832;2023-08-06T06:00:02;92192.31;;;14.83;100.00
12471;BME280;36499;46.484;13.832;2023-08-06T06:02:31;92185.47;;;14.77;100.00
12471;BME280;36499;46.484;13.832;2023-08-06T06:04:58;92196.25;;;14.75;100.00
12471;BME280;36499;46.484;13.832;2023-08-06T06:07:25;92189.69;;;14.78;100.00
12471;BME280;36499;46.484;13.832;2023-08-06T06:09:54;92192.84;;;14.75;100.00
12471;BME280;36499;46.484;13.832;2023-08-06T06:12:21;92187.31;;;14.71;100.00
12471;BME280;36499;46.484;13.832;2023-08-06T06:14:48;92195.97;;;14.77;100.00
12471;BME280;36499;46.484;13.832;2023-08-06T06:17:15;92198.66;;;15.07;100.00
12471;BME280;36499;46.484;13.832;2023-08-06T06:19:42;92202.06;;;15.08;100.00
12471;BME280;36499;46.484;13.832;2023-08-06T06:22:09;92206.00;;;15.15;100.00
12471;BME280;36499;46.484;13.832;2023-08-06T06:24:36;92193.16;;;15.24;100.00
12471;BME280;36499;46.484;13.832;2023-08-06T06:27:05;92209.69;;;15.34;99.43
12471;BME280;36499;46.484;13.832;2023-08-06T06:29:32;92215.47;;;15.21;99.53
12471;BME280;36499;46.484;13.832;2023-08-06T06:31:59;92203.66;;;15.34;98.63
12471;BME280;36499;46.484;13.832;2023-08-06T06:34:26;92211.53;;;15.44;98.72
12471;BME280;36499;46.484;13.832;2023-08-06T06:36:53;92210.72;;;15.49;98.07
12471;BME280;36499;46.484;13.832;2023-08-06T06:39:21;92211.81;;;15.48;97.63
12471;BME280;36499;46.484;13.832;2023-08-06T06:41:48;92212.34;;;15.60;97.96
12471;BME280;36499;46.484;13.832;2023-08-06T06:44:16;92206.06;;;15.56;97.89
12471;BME280;36499;46.484;13.832;2023-08-06T06:46:45;92205.00;;;15.52;96.95
12471;BME280;36499;46.484;13.832;2023-08-06T06:49:12;92195.78;;;15.54;97.01
12471;BME280;36499;46.484;13.832;2023-08-06T06:51:39;92204.72;;;15.63;95.92
12471;BME280;36499;46.484;13.832;2023-08-06T06:54:06;92201.84;;;15.75;96.91
12471;BME280;36499;46.484;13.832;2023-08-06T06:56:33;92193.91;;;15.85;96.80
12471;BME280;36499;46.484;13.832;2023-08-06T06:59:00;92207.63;;;15.62;98.50
12471;BME280;36499;46.484;13.832;2023-08-06T07:01:29;92193.91;;;15.85;97.59
12471;BME280;36499;46.484;13.832;2023-08-06T07:03:56;92197.81;;;16.08;95.76
12471;BME280;36499;46.484;13.832;2023-08-06T07:06:23;92199.06;;;16.25;94.53
12471;BME280;36499;46.484;13.832;2023-08-06T07:08:50;92181.44;;;16.26;93.51
12471;BME280;36499;46.484;13.832;2023-08-06T07:11:17;92172.13;;;16.49;94.34
12471;BME280;36499;46.484;13.832;2023-08-06T07:13:44;92180.66;;;16.85;93.19
12471;BME280;36499;46.484;13.832;2023-08-06T07:16:11;92176.66;;;16.92;90.18
12471;BME280;36499;46.484;13.832;2023-08-06T07:18:40;92172.28;;;17.16;89.11
12471;BME280;36499;46.484;13.832;2023-08-06T07:21:07;92170.91;;;17.24;86.73
12471;BME280;36499;46.484;13.832;2023-08-06T07:23:34;92168.19;;;17.34;85.32
12471;BME280;36499;46.484;13.832;2023-08-06T07:26:01;92171.88;;;17.38;84.96
12471;BME280;36499;46.484;13.832;2023-08-06T07:28:28;92173.81;;;17.61;83.60
12471;BME280;36499;46.484;13.832;2023-08-06T07:30:55;92161.09;;;17.92;81.86
12471;BME280;36499;46.484;13.832;2023-08-06T07:33:22;92165.50;;;17.73;76.45
12471;BME280;36499;46.484;13.832;2023-08-06T07:35:50;92157.75;;;18.10;77.82
12471;BME280;36499;46.484;13.832;2023-08-06T07:38:17;92163.28;;;18.09;76.93
12471;BME280;36499;46.484;13.832;2023-08-06T07:40:45;92166.31;;;17.97;80.44
12471;BME280;36499;46.484;13.832;2023-08-06T07:43:12;92168.47;;;17.95;80.48
12471;BME280;36499;46.484;13.832;2023-08-06T07:45:39;92167.59;;;17.76;82.77
12471;BME280;36499;46.484;13.832;2023-08-06T07:48:06;92176.00;;;17.78;84.87
12471;BME280;36499;46.484;13.832;2023-08-06T07:50:33;92172.09;;;17.76;84.70
12471;BME280;36499;46.484;13.832;2023-08-06T07:53:02;92176.66;;;17.65;84.19
12471;BME280;36499;46.484;13.832;2023-08-06T07:55:29;92172.03;;;17.47;84.24
12471;BME280;36499;46.484;13.832;2023-08-06T07:57:56;92174.50;;;17.38;85.15
12471;BME280;36499;46.484;13.832;2023-08-06T08:00:23;92173.75;;;17.33;87.54
12471;BME280;36499;46.484;13.832;2023-08-06T08:02:50;92170.00;;;17.39;84.44
12471;BME280;36499;46.484;13.832;2023-08-06T08:05:17;92177.38;;;17.42;82.50
12471;BME280;36499;46.484;13.832;2023-08-06T08:07:44;92174.72;;;17.42;82.56
12471;BME280;36499;46.484;13.832;2023-08-06T08:10:13;92172.22;;;17.60;82.08
12471;BME280;36499;46.484;13.832;2023-08-06T08:12:40;92172.41;;;17.69;79.12
12471;BME280;36499;46.484;13.832;2023-08-06T08:15:09;92169.94;;;17.78;80.52
12471;BME280;36499;46.484;13.832;2023-08-06T08:17:36;92176.03;;;17.73;80.39
12471;BME280;36499;46.484;13.832;2023-08-06T08:20:05;92175.44;;;17.81;78.48
12471;BME280;36499;46.484;13.832;2023-08-06T08:22:32;92174.88;;;18.13;79.01
12471;BME280;36499;46.484;13.832;2023-08-06T08:24:59;92168.00;;;18.36;73.62
12471;BME280;36499;46.484;13.832;2023-08-06T08:27:27;92169.47;;;18.89;76.13
12471;BME280;36499;46.484;13.832;2023-08-06T08:29:55;92168.03;;;18.97;76.23
12471;BME280;36499;46.484;13.832;2023-08-06T08:32:23;92170.69;;;18.97;76.56
12471;BME280;36499;46.484;13.832;2023-08-06T08:34:50;92167.88;;;19.07;75.80
12471;BME280;36499;46.484;13.832;2023-08-06T08:37:18;92162.25;;;18.95;75.14
12471;BME280;36499;46.484;13.832;2023-08-06T08:39:45;92159.63;;;19.13;73.53
12471;BME280;36499;46.484;13.832;2023-08-06T08:42:13;92149.50;;;19.53;71.33
12471;BME280;36499;46.484;13.832;2023-08-06T08:44:43;92156.19;;;19.64;68.47
12471;BME280;36499;46.484;13.832;2023-08-06T08:47:10;92157.53;;;20.07;63.98
12471;BME280;36499;46.484;13.832;2023-08-06T08:49:38;92162.47;;;20.69;61.52
12471;BME280;36499;46.484;13.832;2023-08-06T08:52:08;92164.03;;;21.05;57.44
12471;BME280;36499;46.484;13.832;2023-08-06T08:54:38;92154.53;;;21.40;57.17
12471;BME280;36499;46.484;13.832;2023-08-06T08:57:06;92154.97;;;21.56;55.09
12471;BME280;36499;46.484;13.832;2023-08-06T08:59:34;92151.94;;;21.49;56.87
12471;BME280;36499;46.484;13.832;2023-08-06T09:02:02;92162.66;;;21.22;52.33
12471;BME280;36499;46.484;13.832;2023-08-06T09:04:31;92156.31;;;21.31;50.94
12471;BME280;36499;46.484;13.832;2023-08-06T09:07:00;92157.34;;;21.66;52.81
12471;BME280;36499;46.484;13.832;2023-08-06T09:09:31;92163.94;;;21.91;55.70
12471;BME280;36499;46.484;13.832;2023-08-06T09:12:11;92153.44;;;22.17;52.68
12471;BME280;36499;46.484;13.832;2023-08-06T09:14:39;92146.16;;;22.31;48.04
12471;BME280;36499;46.484;13.832;2023-08-06T09:17:07;92144.34;;;22.09;49.41
12471;BME280;36499;46.484;13.832;2023-08-06T09:19:36;92145.03;;;21.92;48.60
12471;BME280;36499;46.484;13.832;2023-08-06T09:22:04;92152.28;;;22.00;48.62
12471;BME280;36499;46.484;13.832;2023-08-06T09:24:38;92157.44;;;21.52;49.97
12471;BME280;36499;46.484;13.832;2023-08-06T09:27:11;92156.50;;;21.79;47.85
12471;BME280;36499;46.484;13.832;2023-08-06T09:29:43;92148.50;;;21.71;48.06
12471;BME280;36499;46.484;13.832;2023-08-06T09:32:12;92146.75;;;21.66;49.92
12471;BME280;36499;46.484;13.832;2023-08-06T09:34:42;92145.13;;;20.98;48.06
12471;BME280;36499;46.484;13.832;2023-08-06T09:37:10;92164.63;;;21.16;48.38
12471;BME280;36499;46.484;13.832;2023-08-06T09:39:39;92152.41;;;21.29;52.80
12471;BME280;36499;46.484;13.832;2023-08-06T09:42:07;92151.63;;;21.50;50.08
12471;BME280;36499;46.484;13.832;2023-08-06T09:44:34;92155.66;;;21.92;53.63
12471;BME280;36499;46.484;13.832;2023-08-06T09:47:03;92161.06;;;22.40;57.32
12471;BME280;36499;46.484;13.832;2023-08-06T09:49:43;92150.09;;;22.81;57.05
12471;BME280;36499;46.484;13.832;2023-08-06T09:52:13;92144.03;;;23.24;54.16
12471;BME280;36499;46.484;13.832;2023-08-06T09:54:43;92143.41;;;23.53;53.74
12471;BME280;36499;46.484;13.832;2023-08-06T09:57:12;92142.94;;;23.08;47.12
12471;BME280;36499;46.484;13.832;2023-08-06T09:59:42;92152.94;;;23.11;48.75
12471;BME280;36499;46.484;13.832;2023-08-06T10:02:13;92141.66;;;22.88;46.90
12471;BME280;36499;46.484;13.832;2023-08-06T10:04:44;92150.56;;;22.92;45.75
12471;BME280;36499;46.484;13.832;2023-08-06T10:07:12;92153.84;;;22.89;48.76
12471;BME280;36499;46.484;13.832;2023-08-06T10:09:39;92158.84;;;22.82;53.77
12471;BME280;36499;46.484;13.832;2023-08-06T10:12:06;92159.34;;;22.92;50.78
12471;BME280;36499;46.484;13.832;2023-08-06T10:14:37;92155.31;;;22.64;49.86
12471;BME280;36499;46.484;13.832;2023-08-06T10:17:06;92164.78;;;22.39;45.23
12471;BME280;36499;46.484;13.832;2023-08-06T10:19:33;92166.88;;;22.51;43.72
12471;BME280;36499;46.484;13.832;2023-08-06T10:22:13;92158.13;;;22.59;45.55
12471;BME280;36499;46.484;13.832;2023-08-06T10:24:52;92149.69;;;22.57;46.33
12471;BME280;36499;46.484;13.832;2023-08-06T10:27:30;92150.97;;;22.68;45.64
12471;BME280;36499;46.484;13.832;2023-08-06T10:30:22;92159.63;;;22.82;46.29
12471;BME280;36499;46.484;13.832;2023-08-06T10:32:51;92151.66;;;23.00;46.08
12471;BME280;36499;46.484;13.832;2023-08-06T10:35:35;92146.78;;;22.76;43.36
12471;BME280;36499;46.484;13.832;2023-08-06T10:38:09;92141.31;;;22.72;42.62
12471;BME280;36499;46.484;13.832;2023-08-06T10:40:39;92140.50;;;22.63;46.18
12471;BME280;36499;46.484;13.832;2023-08-06T10:43:07;92134.31;;;23.02;46.72
12471;BME280;36499;46.484;13.832;2023-08-06T10:45:37;92124.47;;;23.20;45.71
12471;BME280;36499;46.484;13.832;2023-08-06T10:48:04;92131.84;;;23.49;48.23
12471;BME280;36499;46.484;13.832;2023-08-06T10:50:32;92135.38;;;23.96;47.93
12471;BME280;36499;46.484;13.832;2023-08-06T10:53:06;92135.78;;;24.23;41.01
12471;BME280;36499;46.484;13.832;2023-08-06T10:55:34;92134.88;;;24.49;47.96
12471;BME280;36499;46.484;13.832;2023-08-06T10:58:04;92126.69;;;24.83;41.78
12471;BME280;36499;46.484;13.832;2023-08-06T11:00:31;92133.63;;;24.84;41.08
12471;BME280;36499;46.484;13.832;2023-08-06T11:02:58;92128.63;;;24.45;38.64
12471;BME280;36499;46.484;13.832;2023-08-06T11:05:25;92121.41;;;24.45;42.89
12471;BME280;36499;46.484;13.832;2023-08-06T11:07:52;92121.41;;;24.45;40.67
12471;BME280;36499;46.484;13.832;2023-08-06T11:10:21;92112.53;;;24.62;42.77
12471;BME280;36499;46.484;13.832;2023-08-06T11:12:48;92114.94;;;24.55;40.98
12471;BME280;36499;46.484;13.832;2023-08-06T11:15:15;92111.81;;;24.23;42.49
12471;BME280;36499;46.484;13.832;2023-08-06T11:17:42;92109.03;;;24.03;40.67
12471;BME280;36499;46.484;13.832;2023-08-06T11:20:09;92109.88;;;23.77;41.23
12471;BME280;36499;46.484;13.832;2023-08-06T11:22:37;92114.44;;;23.00;40.71
12471;BME280;36499;46.484;13.832;2023-08-06T11:25:07;92116.72;;;22.58;42.83
12471;BME280;36499;46.484;13.832;2023-08-06T11:27:35;92115.34;;;22.21;43.67
12471;BME280;36499;46.484;13.832;2023-08-06T11:30:03;92110.47;;;22.15;49.14
12471;BME280;36499;46.484;13.832;2023-08-06T11:32:30;92115.09;;;22.00;49.73
12471;BME280;36499;46.484;13.832;2023-08-06T11:34:59;92104.16;;;21.71;50.32
12471;BME280;36499;46.484;13.832;2023-08-06T11:37:26;92109.50;;;21.49;51.99
12471;BME280;36499;46.484;13.832;2023-08-06T11:39:53;92107.75;;;21.44;57.83
12471;BME280;36499;46.484;13.832;2023-08-06T11:42:22;92105.59;;;21.24;60.34
12471;BME280;36499;46.484;13.832;2023-08-06T11:44:52;92110.81;;;21.16;60.57
12471;BME280;36499;46.484;13.832;2023-08-06T11:47:19;92115.28;;;21.29;59.27
12471;BME280;36499;46.484;13.832;2023-08-06T11:49:48;92115.03;;;21.17;56.51
12471;BME280;36499;46.484;13.832;2023-08-06T11:52:17;92116.63;;;21.18;58.29
12471;BME280;36499;46.484;13.832;2023-08-06T11:54:48;92116.63;;;21.18;59.17
12471;BME280;36499;46.484;13.832;2023-08-06T11:57:26;92118.66;;;21.21;59.84
12471;BME280;36499;46.484;13.832;2023-08-06T11:59:55;92117.09;;;21.20;60.43
12471;BME280;36499;46.484;13.832;2023-08-06T12:02:22;92113.47;;;21.16;61.41
12471;BME280;36499;46.484;13.832;2023-08-06T12:05:04;92118.56;;;21.26;61.85
12471;BME280;36499;46.484;13.832;2023-08-06T12:07:38;92116.56;;;21.31;60.90
12471;BME280;36499;46.484;13.832;2023-08-06T12:10:07;92121.31;;;21.43;66.70
12471;BME280;36499;46.484;13.832;2023-08-06T12:12:35;92109.34;;;21.45;65.08
12471;BME280;36499;46.484;13.832;2023-08-06T12:15:05;92110.81;;;21.60;66.99
12471;BME280;36499;46.484;13.832;2023-08-06T12:17:33;92105.56;;;21.91;63.86
12471;BME280;36499;46.484;13.832;2023-08-06T12:20:00;92102.25;;;22.33;62.78
12471;BME280;36499;46.484;13.832;2023-08-06T12:22:27;92112.69;;;22.69;59.84
12471;BME280;36499;46.484;13.832;2023-08-06T12:24:57;92107.09;;;23.22;55.63
12471;BME280;36499;46.484;13.832;2023-08-06T12:27:24;92105.19;;;23.40;51.02
12471;BME280;36499;46.484;13.832;2023-08-06T12:29:51;92101.63;;;23.53;50.45
12471;BME280;36499;46.484;13.832;2023-08-06T12:32:20;92092.22;;;23.64;46.70
12471;BME280;36499;46.484;13.832;2023-08-06T12:34:47;92099.38;;;23.81;50.26
12471;BME280;36499;46.484;13.832;2023-08-06T12:37:14;92099.69;;;23.88;47.36
12471;BME280;36499;46.484;13.832;2023-08-06T12:39:41;92099.34;;;23.89;47.47
12471;BME280;36499;46.484;13.832;2023-08-06T12:42:08;92098.50;;;24.06;49.12
12471;BME280;36499;46.484;13.832;2023-08-06T12:44:36;92095.75;;;24.32;48.44
12471;BME280;36499;46.484;13.832;2023-08-06T12:47:03;92096.22;;;24.63;48.44
12471;BME280;36499;46.484;13.832;2023-08-06T12:49:31;92103.00;;;24.61;48.76
12471;BME280;36499;46.484;13.832;2023-08-06T12:51:59;92104.91;;;24.81;48.34